createdAt,value
2018-02-23T00:00:42.715Z,4.00
2018-02-23T00:01:42.712Z,4.00
2018-02-23T00:02:42.666Z,4.00
2018-02-23T00:03:42.639Z,4.00
2018-02-23T00:04:42.622Z,4.00
2018-02-23T00:05:42.584Z,4.00
2018-02-23T00:06:42.562Z,4.00
2018-02-23T00:07:42.531Z,4.00
2018-02-23T00:08:42.510Z,4.00
2018-02-23T00:09:42.483Z,4.00
2018-02-23T00:10:42.457Z,4.00
2018-02-23T00:11:42.428Z,4.00
2018-02-23T00:12:42.402Z,4.00
2018-02-23T00:13:42.387Z,4.00
2018-02-23T00:14:42.362Z,4.00
2018-02-23T00:15:42.324Z,4.00
2018-02-23T00:16:42.385Z,4.00
2018-02-23T00:17:42.274Z,4.00
2018-02-23T00:18:42.246Z,4.00
2018-02-23T00:19:42.226Z,4.00
2018-02-23T00:20:42.197Z,4.00
2018-02-23T00:21:42.167Z,4.00
2018-02-23T00:22:42.162Z,4.00
2018-02-23T00:23:42.114Z,4.00
2018-02-23T00:24:42.089Z,4.00
2018-02-23T00:25:42.063Z,4.00
2018-02-23T00:26:42.038Z,4.00
2018-02-23T00:27:42.019Z,4.00
2018-02-23T00:28:41.989Z,4.00
2018-02-23T00:29:41.964Z,4.00
2018-02-23T00:30:41.933Z,4.00
2018-02-23T00:31:41.946Z,4.00
2018-02-23T00:32:41.882Z,4.00
2018-02-23T00:33:41.857Z,4.00
2018-02-23T00:34:41.830Z,4.00
2018-02-23T00:35:41.814Z,4.00
2018-02-23T00:36:41.781Z,4.00
2018-02-23T00:37:41.752Z,4.00
2018-02-23T00:38:41.728Z,4.00
2018-02-23T00:39:41.701Z,4.00
2018-02-23T00:40:41.692Z,4.00
2018-02-23T00:41:41.650Z,4.00
2018-02-23T00:42:41.624Z,4.00
2018-02-23T00:43:41.607Z,4.00
2018-02-23T00:44:41.569Z,4.00
2018-02-23T00:45:41.548Z,4.00
2018-02-23T00:46:41.519Z,4.00
2018-02-23T00:47:41.493Z,4.00
2018-02-23T00:48:41.466Z,4.00
2018-02-23T00:49:41.438Z,4.00
2018-02-23T00:50:41.427Z,4.00
2018-02-23T00:51:41.389Z,4.00
2018-02-23T00:52:41.471Z,4.00
2018-02-23T00:53:41.345Z,4.00
2018-02-23T00:54:41.310Z,4.00
2018-02-23T00:55:41.400Z,4.00
2018-02-23T00:56:41.258Z,4.00
2018-02-23T00:57:41.235Z,4.00
2018-02-23T00:58:41.210Z,4.00
2018-02-23T00:59:41.191Z,4.00
2018-02-23T01:00:41.172Z,4.00
2018-02-23T01:01:41.129Z,4.00
2018-02-23T01:02:41.105Z,4.00
2018-02-23T01:03:41.078Z,4.00
2018-02-23T01:04:41.053Z,4.00
2018-02-23T01:05:41.024Z,4.00
2018-02-23T01:06:40.998Z,4.00
2018-02-23T01:07:40.977Z,4.00
2018-02-23T01:08:40.946Z,4.00
2018-02-23T01:09:40.929Z,4.00
2018-02-23T01:10:40.897Z,4.00
2018-02-23T01:11:40.869Z,4.00
2018-02-23T01:12:40.846Z,4.00
2018-02-23T01:13:40.819Z,4.00
2018-02-23T01:14:40.792Z,4.00
2018-02-23T01:15:40.768Z,4.00
2018-02-23T01:16:40.754Z,4.00
2018-02-23T01:17:40.730Z,4.00
2018-02-23T01:18:40.692Z,4.00
2018-02-23T01:19:40.665Z,4.00
2018-02-23T01:20:40.651Z,4.00
2018-02-23T01:21:40.625Z,4.00
2018-02-23T01:22:40.585Z,4.00
2018-02-23T01:23:40.560Z,4.00
2018-02-23T01:24:40.540Z,4.00
2018-02-23T01:25:40.507Z,4.00
2018-02-23T01:26:40.480Z,4.00
2018-02-23T01:27:40.455Z,4.00
2018-02-23T01:28:40.544Z,4.00
2018-02-23T01:29:40.404Z,4.00
2018-02-23T01:30:40.381Z,4.00
2018-02-23T01:31:40.382Z,4.00
2018-02-23T01:32:40.328Z,4.00
2018-02-23T01:33:40.306Z,4.00
2018-02-23T01:34:40.282Z,4.00
2018-02-23T01:35:40.256Z,4.00
2018-02-23T01:36:40.222Z,4.00
2018-02-23T01:37:40.205Z,4.00
2018-02-23T01:38:40.170Z,4.00
2018-02-23T01:39:40.142Z,4.00
2018-02-23T01:40:40.120Z,4.00
2018-02-23T01:41:40.091Z,4.00
2018-02-23T01:42:40.066Z,4.00
2018-02-23T01:43:40.045Z,4.00
2018-02-23T01:44:40.018Z,4.00
2018-02-23T01:45:39.990Z,4.00
2018-02-23T01:46:39.961Z,4.00
2018-02-23T01:47:39.933Z,4.00
2018-02-23T01:48:39.909Z,4.00
2018-02-23T01:49:39.889Z,4.00
2018-02-23T01:50:39.859Z,4.00
2018-02-23T01:51:39.828Z,4.00
2018-02-23T01:52:39.802Z,4.00
2018-02-23T01:53:39.797Z,4.00
2018-02-23T01:54:39.753Z,4.00
2018-02-23T01:55:39.723Z,4.00
2018-02-23T01:56:39.789Z,4.00
2018-02-23T01:57:39.675Z,4.00
2018-02-23T01:58:39.647Z,4.00
2018-02-23T01:59:39.669Z,4.00
2018-02-23T02:00:39.592Z,4.00
2018-02-23T02:01:39.586Z,4.00
2018-02-23T02:02:39.543Z,4.00
2018-02-23T02:03:39.525Z,4.00
2018-02-23T02:04:39.489Z,4.00
2018-02-23T02:05:39.461Z,4.00
2018-02-23T02:06:39.441Z,4.00
2018-02-23T02:07:39.408Z,4.00
2018-02-23T02:08:39.384Z,4.00
2018-02-23T02:09:39.358Z,4.00
2018-02-23T02:10:39.335Z,4.00
2018-02-23T02:11:39.305Z,4.00
2018-02-23T02:12:39.277Z,4.00
2018-02-23T02:13:39.253Z,4.00
2018-02-23T02:14:39.225Z,4.00
2018-02-23T02:15:39.201Z,4.00
2018-02-23T02:16:39.176Z,4.00
2018-02-23T02:17:39.152Z,4.00
2018-02-23T02:18:39.119Z,4.00
2018-02-23T02:19:39.112Z,4.00
2018-02-23T02:20:39.072Z,4.00
2018-02-23T02:21:39.044Z,4.00
2018-02-23T02:22:39.018Z,4.00
2018-02-23T02:23:38.989Z,4.00
2018-02-23T02:24:38.964Z,4.00
2018-02-23T02:25:38.937Z,4.00
2018-02-23T02:26:38.914Z,4.00
2018-02-23T02:27:38.891Z,4.00
2018-02-23T02:28:38.858Z,4.00
2018-02-23T02:29:38.832Z,4.00
2018-02-23T02:30:38.804Z,4.00
2018-02-23T02:31:38.779Z,4.00
2018-02-23T02:32:38.828Z,4.00
2018-02-23T02:33:38.729Z,4.00
2018-02-23T02:34:38.708Z,4.00
2018-02-23T02:35:38.706Z,4.00
2018-02-23T02:36:38.652Z,4.00
2018-02-23T02:37:38.623Z,4.00
2018-02-23T02:38:38.603Z,4.00
2018-02-23T02:39:38.582Z,4.00
2018-02-23T02:40:38.548Z,4.00
2018-02-23T02:41:38.521Z,4.00
2018-02-23T02:42:38.492Z,4.00
2018-02-23T02:43:38.466Z,4.00
2018-02-23T02:44:38.440Z,4.00
2018-02-23T02:45:38.416Z,4.00
2018-02-23T02:46:38.393Z,4.00
2018-02-23T02:47:38.362Z,4.00
2018-02-23T02:48:38.336Z,4.00
2018-02-23T02:49:38.312Z,4.00
2018-02-23T02:50:38.283Z,4.00
2018-02-23T02:51:38.255Z,4.00
2018-02-23T02:52:38.238Z,4.00
2018-02-23T02:53:38.203Z,4.00
2018-02-23T02:54:38.180Z,4.00
2018-02-23T02:55:38.149Z,4.00
2018-02-23T02:56:38.127Z,4.00
2018-02-23T02:57:38.161Z,4.00
2018-02-23T02:58:38.078Z,4.00
2018-02-23T02:59:38.044Z,4.00
2018-02-23T03:00:38.092Z,4.00
2018-02-23T03:01:37.993Z,4.00
2018-02-23T03:02:37.969Z,4.00
2018-02-23T03:03:37.938Z,4.00
2018-02-23T03:04:37.918Z,4.00
2018-02-23T03:05:37.890Z,4.00
2018-02-23T03:06:37.864Z,4.00
2018-02-23T03:07:37.834Z,4.00
2018-02-23T03:08:37.843Z,4.00
2018-02-23T03:09:37.783Z,4.00
2018-02-23T03:10:37.759Z,4.00
2018-02-23T03:11:37.881Z,4.00
2018-02-23T03:12:37.712Z,4.00
2018-02-23T03:13:37.688Z,4.00
2018-02-23T03:14:37.682Z,4.00
2018-02-23T03:15:37.627Z,4.00
2018-02-23T03:16:37.606Z,4.00
2018-02-23T03:17:37.582Z,4.00
2018-02-23T03:18:37.550Z,4.00
2018-02-23T03:19:37.530Z,4.00
2018-02-23T03:20:37.492Z,4.00
2018-02-23T03:21:37.471Z,4.00
2018-02-23T03:22:37.438Z,4.00
2018-02-23T03:23:37.419Z,4.00
2018-02-23T03:24:37.385Z,4.00
2018-02-23T03:25:37.358Z,4.00
2018-02-23T03:26:37.336Z,4.00
2018-02-23T03:27:37.305Z,4.00
2018-02-23T03:28:37.280Z,4.00
2018-02-23T03:29:37.260Z,4.00
2018-02-23T03:30:37.228Z,4.00
2018-02-23T03:31:37.199Z,4.00
2018-02-23T03:32:37.175Z,4.00
2018-02-23T03:33:37.155Z,4.00
2018-02-23T03:34:37.118Z,4.00
2018-02-23T03:35:37.094Z,4.00
2018-02-23T03:36:37.177Z,4.00
2018-02-23T03:37:37.114Z,4.00
2018-02-23T03:38:37.248Z,4.00
2018-02-23T03:39:37.066Z,4.00
2018-02-23T03:40:36.959Z,4.00
2018-02-23T03:41:36.938Z,4.00
2018-02-23T03:42:36.908Z,4.00
2018-02-23T03:43:36.876Z,4.00
2018-02-23T03:44:36.853Z,4.00
2018-02-23T03:45:36.823Z,4.00
2018-02-23T03:46:36.802Z,4.00
2018-02-23T03:47:36.774Z,4.00
2018-02-23T03:48:36.746Z,4.00
2018-02-23T03:49:36.732Z,4.00
2018-02-23T03:50:36.693Z,4.00
2018-02-23T03:51:36.662Z,4.00
2018-02-23T03:52:36.641Z,4.00
2018-02-23T03:53:36.618Z,4.00
2018-02-23T03:54:36.583Z,4.00
2018-02-23T03:55:36.560Z,4.00
2018-02-23T03:56:36.576Z,4.00
2018-02-23T03:57:36.505Z,4.00
2018-02-23T03:58:36.476Z,4.00
2018-02-23T03:59:36.452Z,4.00
2018-02-23T04:00:36.421Z,4.00
2018-02-23T04:01:36.394Z,4.00
2018-02-23T04:02:36.371Z,4.00
2018-02-23T04:03:36.347Z,4.00
2018-02-23T04:04:36.313Z,4.00
2018-02-23T04:05:36.291Z,4.00
2018-02-23T04:06:36.262Z,4.00
2018-02-23T04:07:36.233Z,4.00
2018-02-23T04:08:36.205Z,4.00
2018-02-23T04:09:36.180Z,4.00
2018-02-23T04:10:36.153Z,4.00
2018-02-23T04:11:36.126Z,4.00
2018-02-23T04:12:36.103Z,4.00
2018-02-23T04:13:36.070Z,4.00
2018-02-23T04:14:36.047Z,4.00
2018-02-23T04:15:36.070Z,4.00
2018-02-23T04:16:35.989Z,4.00
2018-02-23T04:17:35.963Z,4.00
2018-02-23T04:18:35.945Z,4.00
2018-02-23T04:19:35.908Z,4.00
2018-02-23T04:20:35.882Z,4.00
2018-02-23T04:21:35.854Z,4.00
2018-02-23T04:22:35.828Z,4.00
2018-02-23T04:23:35.798Z,4.00
2018-02-23T04:24:35.774Z,4.00
2018-02-23T04:25:35.750Z,4.00
2018-02-23T04:26:35.729Z,4.00
2018-02-23T04:27:35.689Z,4.00
2018-02-23T04:28:35.696Z,4.00
2018-02-23T04:29:35.637Z,4.00
2018-02-23T04:30:35.609Z,4.00
2018-02-23T04:31:35.581Z,4.00
2018-02-23T04:32:35.557Z,4.00
2018-02-23T04:33:35.526Z,4.00
2018-02-23T04:34:35.501Z,4.00
2018-02-23T04:35:35.476Z,4.00
2018-02-23T04:36:35.447Z,4.00
2018-02-23T04:37:35.584Z,4.00
2018-02-23T04:38:35.395Z,4.00
2018-02-23T04:39:35.366Z,4.00
2018-02-23T04:40:35.458Z,4.00
2018-02-23T04:41:35.312Z,4.00
2018-02-23T04:42:35.286Z,4.00
2018-02-23T04:43:35.267Z,4.00
2018-02-23T04:44:35.228Z,4.00
2018-02-23T04:45:35.201Z,4.00
2018-02-23T04:46:35.180Z,4.00
2018-02-23T04:47:35.145Z,4.00
2018-02-23T04:48:35.215Z,4.00
2018-02-23T04:49:35.095Z,4.00
2018-02-23T04:50:35.066Z,4.00
2018-02-23T04:51:35.177Z,4.00
2018-02-23T04:52:35.009Z,4.00
2018-02-23T04:53:34.985Z,4.00
2018-02-23T04:54:34.998Z,4.00
2018-02-23T04:55:34.929Z,4.00
2018-02-23T04:56:34.903Z,4.00
2018-02-23T04:57:34.878Z,4.00
2018-02-23T04:58:34.844Z,4.00
2018-02-23T04:59:34.818Z,4.00
2018-02-23T05:00:34.797Z,4.00
2018-02-23T05:01:34.766Z,4.00
2018-02-23T05:02:34.737Z,4.00
2018-02-23T05:03:34.712Z,4.00
2018-02-23T05:04:34.683Z,4.00
2018-02-23T05:05:34.656Z,4.00
2018-02-23T05:06:34.635Z,4.00
2018-02-23T05:07:34.618Z,4.00
2018-02-23T05:08:34.571Z,4.00
2018-02-23T05:09:34.544Z,4.00
2018-02-23T05:10:34.517Z,4.00
2018-02-23T05:11:34.491Z,4.00
2018-02-23T05:12:34.463Z,4.00
2018-02-23T05:13:34.437Z,4.00
2018-02-23T05:14:34.412Z,4.00
2018-02-23T05:15:34.402Z,4.00
2018-02-23T05:16:34.388Z,4.00
2018-02-23T05:17:34.325Z,4.00
2018-02-23T05:18:34.301Z,4.00
2018-02-23T05:19:34.386Z,4.00
2018-02-23T05:20:34.244Z,4.00
2018-02-23T05:21:34.216Z,4.00
2018-02-23T05:22:34.207Z,4.00
2018-02-23T05:23:34.165Z,4.00
2018-02-23T05:24:34.135Z,4.00
2018-02-23T05:25:34.104Z,4.00
2018-02-23T05:26:34.081Z,4.00
2018-02-23T05:27:34.051Z,4.00
2018-02-23T05:28:34.021Z,4.00
2018-02-23T05:29:33.994Z,4.00
2018-02-23T05:30:33.968Z,4.00
2018-02-23T05:31:33.946Z,4.00
2018-02-23T05:32:33.919Z,4.00
2018-02-23T05:33:33.888Z,4.00
2018-02-23T05:34:33.858Z,4.00
2018-02-23T05:35:33.829Z,4.00
2018-02-23T05:36:33.803Z,4.00
2018-02-23T05:37:33.774Z,4.00
2018-02-23T05:38:33.751Z,4.00
2018-02-23T05:39:33.720Z,4.00
2018-02-23T05:40:33.690Z,4.00
2018-02-23T05:41:33.663Z,4.00
2018-02-23T05:42:33.637Z,4.00
2018-02-23T05:43:33.611Z,4.00
2018-02-23T05:44:33.579Z,4.00
2018-02-23T05:45:33.552Z,4.00
2018-02-23T05:46:33.524Z,4.00
2018-02-23T05:47:33.497Z,4.00
2018-02-23T05:48:33.468Z,4.00
2018-02-23T05:49:33.454Z,4.00
2018-02-23T05:50:33.424Z,4.00
2018-02-23T05:51:33.384Z,0.00
2018-02-23T05:52:33.359Z,4.00
2018-02-23T05:53:33.330Z,4.00
2018-02-23T05:54:33.308Z,4.00
2018-02-23T05:55:33.276Z,8.00
2018-02-23T05:56:33.249Z,4.00
2018-02-23T05:57:33.220Z,8.00
2018-02-23T05:58:33.302Z,4.00
2018-02-23T05:59:33.167Z,8.00
2018-02-23T06:00:33.137Z,8.00
2018-02-23T06:01:33.137Z,12.00
2018-02-23T06:02:33.086Z,8.00
2018-02-23T06:03:33.056Z,12.00
2018-02-23T06:04:33.037Z,12.00
2018-02-23T06:05:32.997Z,12.00
2018-02-23T06:06:32.975Z,16.00
2018-02-23T06:07:32.962Z,20.00
2018-02-23T06:08:32.926Z,24.00
2018-02-23T06:09:32.898Z,24.00
2018-02-23T06:10:32.865Z,32.00
2018-02-23T06:11:32.835Z,36.00
2018-02-23T06:12:32.806Z,40.00
2018-02-23T06:13:32.777Z,48.00
2018-02-23T06:14:32.761Z,56.00
2018-02-23T06:15:32.732Z,68.00
2018-02-23T06:16:32.704Z,76.00
2018-02-23T06:17:32.670Z,84.00
2018-02-23T06:18:32.643Z,100.00
2018-02-23T06:19:32.613Z,112.00
2018-02-23T06:20:32.593Z,128.00
2018-02-23T06:21:32.555Z,144.00
2018-02-23T06:22:32.531Z,160.00
2018-02-23T06:23:32.500Z,180.00
2018-02-23T06:24:32.478Z,200.00
2018-02-23T06:25:32.446Z,220.00
2018-02-23T06:26:32.417Z,240.00
2018-02-23T06:27:32.388Z,264.00
2018-02-23T06:28:32.364Z,292.00
2018-02-23T06:29:32.334Z,316.00
2018-02-23T06:30:32.305Z,348.00
2018-02-23T06:31:32.285Z,376.00
2018-02-23T06:32:32.250Z,404.00
2018-02-23T06:33:32.223Z,436.00
2018-02-23T06:34:32.311Z,472.00
2018-02-23T06:35:32.165Z,508.00
2018-02-23T06:36:32.184Z,540.00
2018-02-23T06:37:32.129Z,584.00
2018-02-23T06:38:32.082Z,620.00
2018-02-23T06:39:32.057Z,664.00
2018-02-23T06:40:32.043Z,708.00
2018-02-23T06:41:31.999Z,748.00
2018-02-23T06:42:31.979Z,796.00
2018-02-23T06:43:31.960Z,848.00
2018-02-23T06:44:31.919Z,900.00
2018-02-23T06:45:31.892Z,952.00
2018-02-23T06:46:31.862Z,1012.00
2018-02-23T06:47:31.830Z,1072.00
2018-02-23T06:48:31.829Z,1128.00
2018-02-23T06:49:31.783Z,1188.00
2018-02-23T06:50:31.749Z,1236.00
2018-02-23T06:51:31.727Z,1288.00
2018-02-23T06:52:31.701Z,1352.00
2018-02-23T06:53:31.671Z,1412.00
2018-02-23T06:54:31.637Z,1460.00
2018-02-23T06:55:31.611Z,1508.00
2018-02-23T06:56:31.583Z,1576.00
2018-02-23T06:57:31.556Z,1640.00
2018-02-23T06:58:31.538Z,1704.00
2018-02-23T06:59:31.497Z,1772.00
2018-02-23T07:00:31.469Z,1836.00
2018-02-23T07:01:31.442Z,1892.00
2018-02-23T07:02:31.416Z,1956.00
2018-02-23T07:03:31.393Z,2016.00
2018-02-23T07:04:31.358Z,2064.00
2018-02-23T07:05:31.343Z,2120.00
2018-02-23T07:06:31.307Z,2180.00
2018-02-23T07:07:31.281Z,2252.00
2018-02-23T07:08:31.352Z,2328.00
2018-02-23T07:09:31.218Z,2412.00
2018-02-23T07:10:31.191Z,2488.00
2018-02-23T07:11:31.174Z,2528.00
2018-02-23T07:12:31.136Z,2560.00
2018-02-23T07:13:31.111Z,2624.00
2018-02-23T07:14:31.089Z,2676.00
2018-02-23T07:15:31.057Z,2732.00
2018-02-23T07:16:31.046Z,2792.00
2018-02-23T07:17:31.007Z,2856.00
2018-02-23T07:18:30.968Z,2920.00
2018-02-23T07:19:30.954Z,2988.00
2018-02-23T07:20:30.915Z,3052.00
2018-02-23T07:21:30.885Z,3116.00
2018-02-23T07:22:30.870Z,3188.00
2018-02-23T07:23:30.831Z,3244.00
2018-02-23T07:24:30.805Z,3332.00
2018-02-23T07:25:30.783Z,3404.00
2018-02-23T07:26:30.764Z,3476.00
2018-02-23T07:27:30.716Z,3504.00
2018-02-23T07:28:30.713Z,3528.00
2018-02-23T07:29:30.668Z,3568.00
2018-02-23T07:30:30.636Z,3628.00
2018-02-23T07:31:30.610Z,3700.00
2018-02-23T07:32:30.581Z,3752.00
2018-02-23T07:33:30.553Z,3820.00
2018-02-23T07:34:30.523Z,3900.00
2018-02-23T07:35:30.496Z,3952.00
2018-02-23T07:36:30.468Z,4008.00
2018-02-23T07:37:30.443Z,4072.00
2018-02-23T07:38:30.461Z,4104.00
2018-02-23T07:39:30.394Z,4132.00
2018-02-23T07:40:30.358Z,4220.00
2018-02-23T07:41:30.336Z,4288.00
2018-02-23T07:42:30.304Z,4328.00
2018-02-23T07:43:30.274Z,4340.00
2018-02-23T07:44:30.254Z,4376.00
2018-02-23T07:45:30.222Z,4476.00
2018-02-23T07:46:30.191Z,4568.00
2018-02-23T07:47:30.170Z,4604.00
2018-02-23T07:48:30.137Z,4660.00
2018-02-23T07:49:30.112Z,4708.00
2018-02-23T07:50:30.233Z,4720.00
2018-02-23T07:51:30.054Z,4708.00
2018-02-23T07:52:30.033Z,4812.00
2018-02-23T07:53:30.036Z,4880.00
2018-02-23T07:54:29.981Z,5008.00
2018-02-23T07:55:29.948Z,5120.00
2018-02-23T07:56:29.912Z,5168.00
2018-02-23T07:57:29.891Z,5160.00
2018-02-23T07:58:29.861Z,5216.00
2018-02-23T07:59:29.837Z,5152.00
2018-02-23T08:00:29.805Z,5232.00
2018-02-23T08:01:29.797Z,5228.00
2018-02-23T08:02:29.749Z,5172.00
2018-02-23T08:03:29.718Z,5164.00
2018-02-23T08:04:29.744Z,5132.00
2018-02-23T08:05:29.670Z,5032.00
2018-02-23T08:06:29.648Z,5044.00
2018-02-23T08:07:29.628Z,5028.00
2018-02-23T08:08:29.588Z,5028.00
2018-02-23T08:09:29.554Z,5056.00
2018-02-23T08:10:29.540Z,5040.00
2018-02-23T08:11:29.498Z,5044.00
2018-02-23T08:12:29.473Z,5016.00
2018-02-23T08:13:29.451Z,5132.00
2018-02-23T08:14:29.418Z,5284.00
2018-02-23T08:15:29.388Z,5476.00
2018-02-23T08:16:29.357Z,5596.00
2018-02-23T08:17:29.331Z,5684.00
2018-02-23T08:18:29.303Z,5916.00
2018-02-23T08:19:29.275Z,6248.00
2018-02-23T08:20:29.248Z,6572.00
2018-02-23T08:21:29.227Z,7000.00
2018-02-23T08:22:29.193Z,7104.00
2018-02-23T08:23:29.167Z,7488.00
2018-02-23T08:24:29.135Z,8336.00
2018-02-23T08:25:29.115Z,9004.00
2018-02-23T08:26:29.143Z,9236.00
2018-02-23T08:27:29.052Z,9256.00
2018-02-23T08:28:29.023Z,9504.00
2018-02-23T08:29:29.006Z,9136.00
2018-02-23T08:30:28.989Z,8844.00
2018-02-23T08:31:28.946Z,9092.00
2018-02-23T08:32:28.949Z,9596.00
2018-02-23T08:33:28.895Z,8852.00
2018-02-23T08:34:28.859Z,7200.00
2018-02-23T08:35:28.829Z,7052.00
2018-02-23T08:36:28.801Z,6860.00
2018-02-23T08:37:28.775Z,6752.00
2018-02-23T08:38:28.747Z,6852.00
2018-02-23T08:39:28.719Z,6808.00
2018-02-23T08:40:28.690Z,6872.00
2018-02-23T08:41:28.666Z,6188.00
2018-02-23T08:42:28.636Z,6160.00
2018-02-23T08:43:28.606Z,5940.00
2018-02-23T08:44:28.584Z,6292.00
2018-02-23T08:45:28.555Z,6392.00
2018-02-23T08:46:28.529Z,6744.00
2018-02-23T08:47:28.498Z,7096.00
2018-02-23T08:48:28.473Z,7112.00
2018-02-23T08:49:28.445Z,7160.00
2018-02-23T08:50:28.419Z,6856.00
2018-02-23T08:51:28.393Z,6940.00
2018-02-23T08:52:28.372Z,6736.00
2018-02-23T08:53:28.348Z,6524.00
2018-02-23T08:54:28.312Z,6348.00
2018-02-23T08:55:28.294Z,6292.00
2018-02-23T08:56:28.258Z,6004.00
2018-02-23T08:57:28.233Z,6136.00
2018-02-23T08:58:28.210Z,6600.00
2018-02-23T08:59:28.185Z,6824.00
2018-02-23T09:00:28.152Z,7308.00
2018-02-23T09:01:28.122Z,7112.00
2018-02-23T09:02:28.103Z,7464.00
2018-02-23T09:03:28.070Z,7388.00
2018-02-23T09:04:28.046Z,7784.00
2018-02-23T09:05:28.043Z,9260.00
2018-02-23T09:06:27.992Z,10884.00
2018-02-23T09:07:27.962Z,11456.00
2018-02-23T09:08:27.948Z,12516.00
2018-02-23T09:09:27.916Z,11392.00
2018-02-23T09:10:27.882Z,12964.00
2018-02-23T09:11:27.941Z,15236.00
2018-02-23T09:12:27.836Z,13868.00
2018-02-23T09:13:27.802Z,13652.00
2018-02-23T09:14:27.785Z,15056.00
2018-02-23T09:15:27.749Z,13272.00
2018-02-23T09:16:27.724Z,20320.00
2018-02-23T09:17:27.706Z,14900.00
2018-02-23T09:18:27.672Z,15920.00
2018-02-23T09:19:27.650Z,15692.00
2018-02-23T09:20:27.624Z,14052.00
2018-02-23T09:21:27.593Z,19232.00
2018-02-23T09:22:27.576Z,12916.00
2018-02-23T09:23:27.543Z,11148.00
2018-02-23T09:24:27.521Z,12768.00
2018-02-23T09:25:27.495Z,11504.00
2018-02-23T09:26:27.467Z,17472.00
2018-02-23T09:27:27.441Z,11000.00
2018-02-23T09:28:27.430Z,19296.00
2018-02-23T09:29:27.390Z,12872.00
2018-02-23T09:30:27.374Z,13412.00
2018-02-23T09:31:27.388Z,11252.00
2018-02-23T09:32:27.319Z,10456.00
2018-02-23T09:33:27.430Z,11788.00
2018-02-23T09:34:27.267Z,12012.00
2018-02-23T09:35:27.263Z,25728.00
2018-02-23T09:36:27.222Z,37568.00
2018-02-23T09:37:27.199Z,11356.00
2018-02-23T09:38:27.168Z,15920.00
2018-02-23T09:39:27.136Z,37248.00
2018-02-23T09:40:27.127Z,30656.00
2018-02-23T09:41:27.089Z,39104.00
2018-02-23T09:42:27.069Z,12404.00
2018-02-23T09:43:27.042Z,31424.00
2018-02-23T09:44:27.038Z,28576.00
2018-02-23T09:45:26.995Z,28768.00
2018-02-23T09:46:26.975Z,27808.00
2018-02-23T09:47:26.971Z,34112.00
2018-02-23T09:48:26.920Z,30240.00
2018-02-23T09:49:26.900Z,34464.00
2018-02-23T09:50:26.935Z,28032.00
2018-02-23T09:51:26.855Z,28512.00
2018-02-23T09:52:26.830Z,30688.00
2018-02-23T09:53:26.818Z,33728.00
2018-02-23T09:54:26.796Z,32640.00
2018-02-23T09:55:26.764Z,30880.00
2018-02-23T09:56:26.746Z,10976.00
2018-02-23T09:57:26.725Z,26656.00
2018-02-23T09:58:26.706Z,18720.00
2018-02-23T09:59:26.685Z,20448.00
2018-02-23T10:00:26.658Z,21920.00
2018-02-23T10:01:26.646Z,33408.00
2018-02-23T10:02:26.620Z,28576.00
2018-02-23T10:03:26.599Z,11560.00
2018-02-23T10:04:26.580Z,38208.00
2018-02-23T10:05:26.558Z,34112.00
2018-02-23T10:06:26.628Z,36512.00
2018-02-23T10:07:26.516Z,11916.00
2018-02-23T10:08:26.503Z,17184.00
2018-02-23T10:09:26.499Z,9924.00
2018-02-23T10:10:26.458Z,46208.00
2018-02-23T10:11:26.439Z,50176.00
2018-02-23T10:12:26.420Z,51680.00
2018-02-23T10:13:26.406Z,31328.00
2018-02-23T10:14:26.373Z,53344.00
2018-02-23T10:15:26.352Z,16820.00
2018-02-23T10:16:26.332Z,12352.00
2018-02-23T10:17:26.313Z,35136.00
2018-02-23T10:18:26.296Z,44032.00
2018-02-23T10:19:26.272Z,24128.00
2018-02-23T10:20:26.252Z,52896.00
2018-02-23T10:21:26.233Z,14844.00
2018-02-23T10:22:26.231Z,11308.00
2018-02-23T10:23:26.199Z,42336.00
2018-02-23T10:24:26.189Z,40832.00
2018-02-23T10:25:26.161Z,53792.00
2018-02-23T10:26:26.152Z,44640.00
2018-02-23T10:27:26.111Z,54368.00
2018-02-23T10:28:26.095Z,61376.00
2018-02-23T10:29:26.071Z,59840.00
2018-02-23T10:30:26.052Z,11340.00
2018-02-23T10:31:26.030Z,47776.00
2018-02-23T10:32:26.011Z,10540.00
2018-02-23T10:33:25.989Z,51040.00
2018-02-23T10:34:25.972Z,58112.00
2018-02-23T10:35:25.955Z,57632.00
2018-02-23T10:36:26.046Z,59104.00
2018-02-23T10:37:25.908Z,33184.00
2018-02-23T10:38:25.892Z,60256.00
2018-02-23T10:39:25.966Z,61952.00
2018-02-23T10:40:25.850Z,62112.00
2018-02-23T10:41:25.844Z,60800.00
2018-02-23T10:42:25.807Z,57952.00
2018-02-23T10:43:25.783Z,59136.00
2018-02-23T10:44:25.771Z,67232.00
2018-02-23T10:45:25.751Z,58304.00
2018-02-23T10:46:25.729Z,55488.00
2018-02-23T10:47:25.715Z,56128.00
2018-02-23T10:48:25.690Z,55168.00
2018-02-23T10:49:25.668Z,56992.00
2018-02-23T10:50:25.650Z,56032.00
2018-02-23T10:51:25.634Z,53952.00
2018-02-23T10:52:25.639Z,54848.00
2018-02-23T10:53:25.590Z,53280.00
2018-02-23T10:54:25.572Z,47392.00
2018-02-23T10:55:25.552Z,43904.00
2018-02-23T10:56:25.531Z,40960.00
2018-02-23T10:57:25.518Z,39040.00
2018-02-23T10:58:25.513Z,42240.00
2018-02-23T10:59:25.485Z,46592.00
2018-02-23T11:00:25.459Z,47200.00
2018-02-23T11:01:25.493Z,39360.00
2018-02-23T11:02:25.421Z,25824.00
2018-02-23T11:03:25.401Z,18464.00
2018-02-23T11:04:25.390Z,13232.00
2018-02-23T11:05:25.366Z,12904.00
2018-02-23T11:06:25.345Z,12632.00
2018-02-23T11:07:25.328Z,12448.00
2018-02-23T11:08:25.310Z,11944.00
2018-02-23T11:09:25.285Z,12160.00
2018-02-23T11:10:25.268Z,11976.00
2018-02-23T11:11:25.255Z,11840.00
2018-02-23T11:12:25.230Z,11812.00
2018-02-23T11:13:25.211Z,11628.00
2018-02-23T11:14:25.198Z,11504.00
2018-02-23T11:15:25.176Z,11488.00
2018-02-23T11:16:25.155Z,11400.00
2018-02-23T11:17:25.143Z,11432.00
2018-02-23T11:18:25.118Z,11388.00
2018-02-23T11:19:25.111Z,11380.00
2018-02-23T11:20:25.076Z,11512.00
2018-02-23T11:21:25.060Z,11412.00
2018-02-23T11:22:25.035Z,11440.00
2018-02-23T11:23:25.014Z,11068.00
2018-02-23T11:24:24.995Z,11072.00
2018-02-23T11:25:25.145Z,10936.00
2018-02-23T11:26:24.953Z,10868.00
2018-02-23T11:27:24.940Z,10420.00
2018-02-23T11:28:24.986Z,10468.00
2018-02-23T11:29:24.894Z,10316.00
2018-02-23T11:30:24.881Z,10124.00
2018-02-23T11:31:24.860Z,10356.00
2018-02-23T11:32:24.833Z,9940.00
2018-02-23T11:33:24.811Z,10056.00
2018-02-23T11:34:24.798Z,9856.00
2018-02-23T11:35:24.780Z,9648.00
2018-02-23T11:36:24.752Z,9656.00
2018-02-23T11:37:24.728Z,9408.00
2018-02-23T11:38:24.707Z,9416.00
2018-02-23T11:39:24.694Z,9400.00
2018-02-23T11:40:24.669Z,9324.00
2018-02-23T11:41:24.651Z,9348.00
2018-02-23T11:42:24.628Z,9308.00
2018-02-23T11:43:24.655Z,9340.00
2018-02-23T11:44:24.587Z,9256.00
2018-02-23T11:45:24.563Z,9320.00
2018-02-23T11:46:24.546Z,9264.00
2018-02-23T11:47:24.531Z,9220.00
2018-02-23T11:48:24.503Z,9300.00
2018-02-23T11:49:24.483Z,9280.00
2018-02-23T11:50:24.478Z,9296.00
2018-02-23T11:51:24.446Z,9256.00
2018-02-23T11:52:24.418Z,9184.00
2018-02-23T11:53:24.399Z,9100.00
2018-02-23T11:54:24.388Z,9180.00
2018-02-23T11:55:24.360Z,9128.00
2018-02-23T11:56:24.342Z,9156.00
2018-02-23T11:57:24.331Z,9144.00
2018-02-23T11:58:24.293Z,9176.00
2018-02-23T11:59:24.272Z,9192.00
2018-02-23T12:00:24.258Z,9136.00
2018-02-23T12:01:24.236Z,8996.00
2018-02-23T12:02:24.209Z,8940.00
2018-02-23T12:03:24.184Z,8768.00
2018-02-23T12:04:24.170Z,8772.00
2018-02-23T12:05:24.141Z,8828.00
2018-02-23T12:06:24.118Z,8888.00
2018-02-23T12:07:24.100Z,8872.00
2018-02-23T12:08:24.072Z,8932.00
2018-02-23T12:09:24.067Z,8920.00
2018-02-23T12:10:24.030Z,8828.00
2018-02-23T12:11:24.007Z,8836.00
2018-02-23T12:12:23.987Z,8848.00
2018-02-23T12:13:23.964Z,8760.00
2018-02-23T12:14:23.948Z,8592.00
2018-02-23T12:15:23.918Z,8132.00
2018-02-23T12:16:23.896Z,7908.00
2018-02-23T12:17:23.872Z,7780.00
2018-02-23T12:18:23.848Z,7656.00
2018-02-23T12:19:23.835Z,7804.00
2018-02-23T12:20:23.813Z,8108.00
2018-02-23T12:21:23.817Z,8712.00
2018-02-23T12:22:23.757Z,8972.00
2018-02-23T12:23:23.797Z,9388.00
2018-02-23T12:24:23.708Z,9408.00
2018-02-23T12:25:23.686Z,7728.00
2018-02-23T12:26:23.668Z,6416.00
2018-02-23T12:27:23.642Z,6316.00
2018-02-23T12:28:23.626Z,6252.00
2018-02-23T12:29:23.590Z,6300.00
2018-02-23T12:30:23.585Z,6272.00
2018-02-23T12:31:23.550Z,6208.00
2018-02-23T12:32:23.534Z,6140.00
2018-02-23T12:33:23.497Z,6028.00
2018-02-23T12:34:23.477Z,5896.00
2018-02-23T12:35:23.522Z,5812.00
2018-02-23T12:36:23.435Z,5856.00